Terminal Aerodrome Forecast
Issued by NWS Cleveland, OH

Home | Current Version | Previous Version | Graphics & Text | Print | Product List | Glossary On
Versions: 1 2 3 4 5 6 7 8 9 10 11 12
000
FTUS41 KCLE 260535
TAFMFD
TAF
KMFD 260535Z 2606/2706 22004KT P6SM SCT070
     FM261200 32003KT P6SM VCSH SCT020 BKN040
      TEMPO 2612/2616 SCT015 BKN020
     FM261600 35008KT P6SM BKN035 OVC250
     FM262200 02005KT P6SM SKC=

USA.gov is the U.S. government's official web portal to all federal, state and local government web resources and services.